createdAt,value
2023-04-29T00:00:00.836Z,4.00
2023-04-29T00:02:01.179Z,3.90
2023-04-29T00:04:01.719Z,3.70
2023-04-29T00:06:02.392Z,3.40
2023-04-29T00:08:02.970Z,3.50
2023-04-29T00:10:03.280Z,3.90
2023-04-29T00:12:03.578Z,4.20
2023-04-29T00:14:03.865Z,4.10
2023-04-29T00:16:04.167Z,3.70
2023-04-29T00:18:04.518Z,3.60
2023-04-29T00:20:04.827Z,4.30
2023-04-29T00:22:05.148Z,4.30
2023-04-29T00:24:05.452Z,4.40
2023-04-29T00:26:05.762Z,4.00
2023-04-29T00:28:06.081Z,4.10
2023-04-29T00:30:06.350Z,4.00
2023-04-29T00:32:06.677Z,3.80
2023-04-29T00:34:06.954Z,3.80
2023-04-29T00:36:07.301Z,3.80
2023-04-29T00:38:07.562Z,3.80
2023-04-29T00:40:07.854Z,3.70
2023-04-29T00:42:08.177Z,3.90
2023-04-29T00:44:08.455Z,4.10
2023-04-29T00:46:08.813Z,4.10
2023-04-29T00:48:09.219Z,3.80
2023-04-29T00:50:09.479Z,3.70
2023-04-29T00:52:09.831Z,4.00
2023-04-29T00:54:10.123Z,4.00
2023-04-29T00:56:10.461Z,3.40
2023-04-29T00:58:10.726Z,3.70
2023-04-29T01:00:10.989Z,3.50
2023-04-29T01:02:11.313Z,3.80
2023-04-29T01:04:11.766Z,3.30
2023-04-29T01:06:12.099Z,3.20
2023-04-29T01:08:12.391Z,3.20
2023-04-29T01:10:12.709Z,3.40
2023-04-29T01:12:12.978Z,2.90
2023-04-29T01:14:13.317Z,2.70
2023-04-29T01:16:13.711Z,2.80
2023-04-29T01:18:13.990Z,2.90
2023-04-29T01:20:14.261Z,2.60
2023-04-29T01:22:14.575Z,2.90
2023-04-29T01:24:14.851Z,3.10
2023-04-29T01:26:15.176Z,3.20
2023-04-29T01:28:15.456Z,3.00
2023-04-29T01:30:15.807Z,3.40
2023-04-29T01:32:16.096Z,3.20
2023-04-29T01:34:16.428Z,3.30
2023-04-29T01:36:16.747Z,3.30
2023-04-29T01:38:17.044Z,3.10
2023-04-29T01:40:17.346Z,3.40
2023-04-29T01:42:17.602Z,4.00
2023-04-29T01:44:17.932Z,3.80
2023-04-29T01:46:18.237Z,4.10
2023-04-29T01:48:18.510Z,3.90
2023-04-29T01:50:18.780Z,3.80
2023-04-29T01:52:19.081Z,3.90
2023-04-29T01:54:19.413Z,3.90
2023-04-29T01:56:19.700Z,3.30
2023-04-29T01:58:20.036Z,3.00
2023-04-29T02:00:20.320Z,3.60
2023-04-29T02:02:20.633Z,3.00
2023-04-29T02:04:21.065Z,4.20
2023-04-29T02:06:21.335Z,4.30
2023-04-29T02:08:21.647Z,4.20
2023-04-29T02:10:21.929Z,4.40
2023-04-29T02:12:22.209Z,4.20
2023-04-29T02:14:22.514Z,4.20
2023-04-29T02:16:22.958Z,4.50
2023-04-29T02:18:23.261Z,4.10
2023-04-29T02:20:23.572Z,4.20
2023-04-29T02:22:23.846Z,4.40
2023-04-29T02:24:24.166Z,4.20
2023-04-29T02:26:24.423Z,4.20
2023-04-29T02:28:24.743Z,3.90
2023-04-29T02:30:25.020Z,4.10
2023-04-29T02:32:25.285Z,4.30
2023-04-29T02:34:25.615Z,3.70
2023-04-29T02:36:25.907Z,3.90
2023-04-29T02:38:26.185Z,4.00
2023-04-29T02:40:26.521Z,3.80
2023-04-29T02:42:26.895Z,3.80
2023-04-29T02:44:27.206Z,3.60
2023-04-29T02:46:27.565Z,3.60
2023-04-29T02:48:27.810Z,3.60
2023-04-29T02:50:28.099Z,3.80
2023-04-29T02:52:28.391Z,3.70
2023-04-29T02:54:28.714Z,3.90
2023-04-29T02:56:28.974Z,3.90
2023-04-29T02:58:29.295Z,3.30
2023-04-29T03:00:29.579Z,3.50
2023-04-29T03:02:30.002Z,3.60
2023-04-29T03:04:30.421Z,3.60
2023-04-29T03:06:30.731Z,3.60
2023-04-29T03:08:31.009Z,3.70
2023-04-29T03:10:31.328Z,3.80
2023-04-29T03:12:31.599Z,3.60
2023-04-29T03:14:31.927Z,3.90
2023-04-29T03:16:32.271Z,3.60
2023-04-29T03:18:32.576Z,3.80
2023-04-29T03:20:32.919Z,3.90
2023-04-29T03:22:33.286Z,3.90
2023-04-29T03:24:33.535Z,4.10
2023-04-29T03:26:33.873Z,3.80
2023-04-29T03:28:34.185Z,3.90
2023-04-29T03:30:34.479Z,3.60
2023-04-29T03:32:34.872Z,3.50
2023-04-29T03:34:35.134Z,3.40
2023-04-29T03:36:35.420Z,3.30
2023-04-29T03:38:35.751Z,3.40
2023-04-29T03:40:36.049Z,3.60
2023-04-29T03:42:36.337Z,3.60
2023-04-29T03:44:36.641Z,3.60
2023-04-29T03:46:37.018Z,3.70
2023-04-29T03:48:37.348Z,3.60
2023-04-29T03:50:37.659Z,3.90
2023-04-29T03:52:37.976Z,4.20
2023-04-29T03:54:38.408Z,3.60
2023-04-29T03:56:38.665Z,3.80
2023-04-29T03:58:39.001Z,4.00
2023-04-29T04:00:39.340Z,3.30
2023-04-29T04:02:39.769Z,3.50
2023-04-29T04:04:45.037Z,3.40
2023-04-29T04:06:45.619Z,3.80
2023-04-29T04:08:45.899Z,3.70
2023-04-29T04:10:46.182Z,3.80
2023-04-29T04:12:46.507Z,4.00
2023-04-29T04:14:46.814Z,3.80
2023-04-29T04:16:47.105Z,3.40
2023-04-29T04:18:47.379Z,4.00
2023-04-29T04:20:47.732Z,4.80
2023-04-29T04:22:48.015Z,3.80
2023-04-29T04:24:48.334Z,3.70
2023-04-29T04:26:48.623Z,3.50
2023-04-29T04:28:48.936Z,3.70
2023-04-29T04:30:49.241Z,4.00
2023-04-29T04:32:49.551Z,4.10
2023-04-29T04:34:49.872Z,3.50
2023-04-29T04:36:50.197Z,3.30
2023-04-29T04:38:50.480Z,3.40
2023-04-29T04:40:50.758Z,3.60
2023-04-29T04:42:51.620Z,3.30
2023-04-29T04:44:52.891Z,3.20
2023-04-29T04:46:53.206Z,3.40
2023-04-29T04:48:53.486Z,3.10
2023-04-29T04:50:53.828Z,2.90
2023-04-29T04:52:54.101Z,3.00
2023-04-29T04:54:54.406Z,3.20
2023-04-29T04:56:54.771Z,3.30
2023-04-29T04:58:55.102Z,3.10
2023-04-29T05:00:55.400Z,2.80
2023-04-29T05:02:55.819Z,3.00
2023-04-29T05:04:56.162Z,2.80
2023-04-29T05:06:56.462Z,2.60
2023-04-29T05:08:56.762Z,2.70
2023-04-29T05:10:57.036Z,2.70
2023-04-29T05:12:57.371Z,2.50
2023-04-29T05:14:57.679Z,2.70
2023-04-29T05:16:58.033Z,3.00
2023-04-29T05:18:58.357Z,2.80
2023-04-29T05:20:58.656Z,32.90
2023-04-29T05:22:58.953Z,16.60
2023-04-29T05:24:59.219Z,15.50
2023-04-29T05:26:59.540Z,8.80
2023-04-29T05:28:59.837Z,11.00
2023-04-29T05:31:00.186Z,3.00
2023-04-29T05:33:00.548Z,3.10
2023-04-29T05:35:00.814Z,3.50
2023-04-29T05:37:01.128Z,3.10
2023-04-29T05:39:01.460Z,3.60
2023-04-29T05:41:01.755Z,3.80
2023-04-29T05:43:02.105Z,4.50
2023-04-29T05:45:02.389Z,3.80
2023-04-29T05:47:02.738Z,4.60
2023-04-29T05:49:02.999Z,6.60
2023-04-29T05:51:03.316Z,4.30
2023-04-29T05:53:03.602Z,3.60
2023-04-29T05:55:03.957Z,2.90
2023-04-29T05:57:04.280Z,2.80
2023-04-29T05:59:04.609Z,3.00
2023-04-29T06:01:05.116Z,2.80
2023-04-29T06:03:05.651Z,2.70
2023-04-29T06:05:06.188Z,2.60
2023-04-29T06:07:06.755Z,3.20
2023-04-29T06:09:13.271Z,4.40
2023-04-29T06:11:12.593Z,3.10
2023-04-29T06:13:12.942Z,3.00
2023-04-29T06:15:13.280Z,3.20
2023-04-29T06:17:13.608Z,2.30
2023-04-29T06:19:13.960Z,2.40
2023-04-29T06:21:15.910Z,2.60
2023-04-29T06:23:16.311Z,2.60
2023-04-29T06:25:16.607Z,2.90
2023-04-29T06:27:16.937Z,3.60
2023-04-29T06:29:17.309Z,3.00
2023-04-29T06:31:17.637Z,3.10
2023-04-29T06:33:17.989Z,2.90
2023-04-29T06:35:18.303Z,3.00
2023-04-29T06:37:18.657Z,2.90
2023-04-29T06:39:19.005Z,3.50
2023-04-29T06:41:19.348Z,3.00
2023-04-29T06:43:19.642Z,3.30
2023-04-29T06:45:19.994Z,3.50
2023-04-29T06:47:20.347Z,3.30
2023-04-29T06:49:20.641Z,3.10
2023-04-29T06:51:20.971Z,3.80
2023-04-29T06:53:21.261Z,3.60
2023-04-29T06:55:21.595Z,3.80
2023-04-29T06:57:21.924Z,3.50
2023-04-29T06:59:22.254Z,3.60
2023-04-29T07:01:23.877Z,4.00
2023-04-29T07:03:24.501Z,4.10
2023-04-29T07:05:24.780Z,3.70
2023-04-29T07:07:25.132Z,4.40
2023-04-29T07:09:25.403Z,4.50
2023-04-29T07:11:25.721Z,4.60
2023-04-29T07:13:26.053Z,5.30
2023-04-29T07:15:26.372Z,5.50
2023-04-29T07:17:26.694Z,6.30
2023-04-29T07:19:27.124Z,6.50
2023-04-29T07:21:28.422Z,6.30
2023-04-29T07:23:28.786Z,6.80
2023-04-29T07:25:29.058Z,7.10
2023-04-29T07:27:29.352Z,7.00
2023-04-29T07:29:29.806Z,7.40
2023-04-29T07:31:30.228Z,7.00
2023-04-29T07:33:30.539Z,7.20
2023-04-29T07:35:30.832Z,7.20
2023-04-29T07:37:31.192Z,7.30
2023-04-29T07:39:31.487Z,6.50
2023-04-29T07:41:31.809Z,7.10
2023-04-29T07:43:32.129Z,6.40
2023-04-29T07:45:32.625Z,7.10
2023-04-29T07:47:32.991Z,7.10
2023-04-29T07:49:33.361Z,6.60
2023-04-29T07:51:33.713Z,6.60
2023-04-29T07:53:34.061Z,13.00
2023-04-29T07:55:34.423Z,8.30
2023-04-29T07:57:34.800Z,7.50
2023-04-29T07:59:35.192Z,6.50
2023-04-29T08:01:35.536Z,5.90
2023-04-29T08:03:37.612Z,6.60
2023-04-29T08:05:40.510Z,7.00
2023-04-29T08:07:40.976Z,6.50
2023-04-29T08:09:41.305Z,6.10
2023-04-29T08:11:43.043Z,6.60
2023-04-29T08:13:43.473Z,6.60
2023-04-29T08:15:44.071Z,6.20
2023-04-29T08:18:26.535Z,6.90
2023-04-29T08:20:28.554Z,6.50
2023-04-29T08:22:28.992Z,6.90
2023-04-29T08:24:29.358Z,6.50
2023-04-29T08:26:29.651Z,6.80
2023-04-29T08:28:29.968Z,6.80
2023-04-29T08:30:30.270Z,6.80
2023-04-29T08:32:30.564Z,6.70
2023-04-29T08:34:30.878Z,6.90
2023-04-29T08:36:31.217Z,7.30
2023-04-29T08:38:31.504Z,10.50
2023-04-29T08:40:31.792Z,14.00
2023-04-29T08:42:32.145Z,14.00
2023-04-29T08:44:32.449Z,12.90
2023-04-29T08:46:32.722Z,13.20
2023-04-29T08:48:33.126Z,13.70
2023-04-29T08:50:33.485Z,14.60
2023-04-29T08:52:33.784Z,13.80
2023-04-29T08:54:34.064Z,13.80
2023-04-29T08:56:34.380Z,12.30
2023-04-29T08:58:34.709Z,13.50
2023-04-29T09:00:35.046Z,14.10
2023-04-29T09:02:35.377Z,12.70
2023-04-29T09:04:35.782Z,12.30
2023-04-29T09:06:36.101Z,12.00
2023-04-29T09:08:36.397Z,11.00
2023-04-29T09:10:36.760Z,12.30
2023-04-29T09:12:37.042Z,12.60
2023-04-29T09:14:37.383Z,11.30
2023-04-29T09:16:37.743Z,11.50
2023-04-29T09:18:38.009Z,11.10
2023-04-29T09:20:38.363Z,11.20
2023-04-29T09:22:38.668Z,10.90
2023-04-29T09:24:39.046Z,10.40
2023-04-29T09:26:39.301Z,10.60
2023-04-29T09:28:39.688Z,11.50
2023-04-29T09:30:39.998Z,10.10
2023-04-29T09:32:40.397Z,9.60
2023-04-29T09:34:40.695Z,9.30
2023-04-29T09:36:41.006Z,9.40
2023-04-29T09:38:42.605Z,8.60
2023-04-29T09:40:58.252Z,8.30
2023-04-29T09:42:49.570Z,8.20
2023-04-29T09:44:49.830Z,8.50
2023-04-29T09:46:50.148Z,8.30
2023-04-29T09:48:50.548Z,8.80
2023-04-29T09:50:50.880Z,9.00
2023-04-29T09:52:51.133Z,8.90
2023-04-29T09:54:51.766Z,8.60
2023-04-29T09:56:52.153Z,8.70
2023-04-29T09:58:52.483Z,8.80
2023-04-29T10:00:52.805Z,9.40
2023-04-29T10:02:53.193Z,7.80
2023-04-29T10:04:54.008Z,7.70
2023-04-29T10:06:54.579Z,7.90
2023-04-29T10:08:54.859Z,6.50
2023-04-29T10:10:55.301Z,7.10
2023-04-29T10:12:55.628Z,7.20
2023-04-29T10:14:56.128Z,6.40
2023-04-29T10:16:56.442Z,6.30
2023-04-29T10:18:56.854Z,5.90
2023-04-29T10:20:57.203Z,5.80
2023-04-29T10:22:57.542Z,5.90
2023-04-29T10:24:57.814Z,6.00
2023-04-29T10:26:58.105Z,5.70
2023-04-29T10:28:58.460Z,6.00
2023-04-29T10:30:58.830Z,5.80
2023-04-29T10:33:01.665Z,5.80
2023-04-29T10:35:02.085Z,6.20
2023-04-29T10:37:02.453Z,6.10
2023-04-29T10:39:02.789Z,5.70
2023-04-29T10:41:03.118Z,5.10
2023-04-29T10:43:03.414Z,5.40
2023-04-29T10:45:03.749Z,5.20
2023-04-29T10:47:04.176Z,5.10
2023-04-29T10:49:04.469Z,5.10
2023-04-29T10:51:04.757Z,5.50
2023-04-29T10:53:05.131Z,5.30
2023-04-29T10:55:05.411Z,5.40
2023-04-29T10:57:05.700Z,5.20
2023-04-29T10:59:06.122Z,5.10
2023-04-29T11:01:06.365Z,4.90
2023-04-29T11:03:06.780Z,5.60
2023-04-29T11:05:07.213Z,5.50
2023-04-29T11:07:07.544Z,4.70
2023-04-29T11:09:07.856Z,4.40
2023-04-29T11:11:08.166Z,4.20
2023-04-29T11:13:08.463Z,4.70
2023-04-29T11:15:08.757Z,4.80
2023-04-29T11:17:09.069Z,4.50
2023-04-29T11:19:09.422Z,4.60
2023-04-29T11:21:09.682Z,5.10
2023-04-29T11:23:09.997Z,5.10
2023-04-29T11:25:10.312Z,5.20
2023-04-29T11:27:10.653Z,5.40
2023-04-29T11:29:10.949Z,5.40
2023-04-29T11:31:11.313Z,5.50
2023-04-29T11:33:11.684Z,5.40
2023-04-29T11:35:12.123Z,5.20
2023-04-29T11:37:12.410Z,4.80
2023-04-29T11:39:12.701Z,5.00
2023-04-29T11:41:13.040Z,5.20
2023-04-29T11:43:13.338Z,5.20
2023-04-29T11:45:13.600Z,4.60
2023-04-29T11:47:13.935Z,5.10
2023-04-29T11:49:14.180Z,5.10
2023-04-29T11:51:14.539Z,5.60
2023-04-29T11:53:14.858Z,5.70
2023-04-29T11:55:15.206Z,5.20
2023-04-29T11:57:15.506Z,4.50
2023-04-29T11:59:15.813Z,4.50
2023-04-29T12:01:16.126Z,3.80
2023-04-29T12:03:16.753Z,3.50
2023-04-29T12:05:17.682Z,3.60
2023-04-29T12:07:18.264Z,3.20
2023-04-29T12:09:18.586Z,3.20
2023-04-29T12:11:18.889Z,2.90
2023-04-29T12:13:19.388Z,3.40
2023-04-29T12:15:19.650Z,3.40
2023-04-29T12:17:19.957Z,3.70
2023-04-29T12:19:20.310Z,3.00
2023-04-29T12:21:20.626Z,3.10
2023-04-29T12:23:20.922Z,3.60
2023-04-29T12:25:21.202Z,3.40
2023-04-29T12:27:21.532Z,3.20
2023-04-29T12:29:21.832Z,3.30
2023-04-29T12:31:22.136Z,3.40
2023-04-29T12:33:22.446Z,3.00
2023-04-29T12:35:22.817Z,3.40
2023-04-29T12:37:23.111Z,3.00
2023-04-29T12:39:23.395Z,2.80
2023-04-29T12:41:23.719Z,2.80
2023-04-29T12:43:24.010Z,2.90
2023-04-29T12:45:24.347Z,2.50
2023-04-29T12:47:24.704Z,2.50
2023-04-29T12:49:24.964Z,2.90
2023-04-29T12:51:25.301Z,3.00
2023-04-29T12:53:25.624Z,3.00
2023-04-29T12:55:25.944Z,3.00
2023-04-29T12:57:26.199Z,3.30
2023-04-29T12:59:26.552Z,3.50
2023-04-29T13:01:26.851Z,2.90
2023-04-29T13:03:27.324Z,2.80
2023-04-29T13:05:27.739Z,3.00
2023-04-29T13:07:28.041Z,2.80
2023-04-29T13:09:28.393Z,3.00
2023-04-29T13:11:32.527Z,3.00
2023-04-29T13:13:33.979Z,3.00
2023-04-29T13:15:34.305Z,3.10
2023-04-29T13:17:34.635Z,3.20
2023-04-29T13:19:48.216Z,3.20
2023-04-29T13:21:40.113Z,3.40
2023-04-29T13:23:40.430Z,3.30
2023-04-29T13:25:41.092Z,3.40
2023-04-29T13:27:41.383Z,3.10
2023-04-29T13:29:41.683Z,3.10
2023-04-29T13:31:43.675Z,3.10
2023-04-29T13:33:44.077Z,3.20
2023-04-29T13:35:44.358Z,3.30
2023-04-29T13:37:44.742Z,3.40
2023-04-29T13:39:47.390Z,2.90
2023-04-29T13:41:48.269Z,4.00
2023-04-29T13:43:50.803Z,3.20
2023-04-29T13:45:52.832Z,3.40
2023-04-29T13:48:07.749Z,3.50
2023-04-29T13:53:00.862Z,3.30
2023-04-29T14:02:28.405Z,3.10
2023-04-29T14:04:29.108Z,3.20
2023-04-29T14:06:29.507Z,3.20
2023-04-29T14:08:29.821Z,2.90
2023-04-29T14:10:30.104Z,2.70
2023-04-29T14:12:30.454Z,3.40
2023-04-29T14:14:30.759Z,3.40
2023-04-29T14:16:31.111Z,3.60
2023-04-29T14:18:31.559Z,3.20
2023-04-29T14:20:31.839Z,3.40
2023-04-29T14:22:32.281Z,3.10
2023-04-29T14:24:32.564Z,3.60
2023-04-29T14:26:32.872Z,3.60
2023-04-29T14:28:33.146Z,3.60
2023-04-29T14:30:33.482Z,3.20
2023-04-29T14:32:33.771Z,3.00
2023-04-29T14:34:34.073Z,3.60
2023-04-29T14:36:34.402Z,3.50
2023-04-29T14:38:34.703Z,3.60
2023-04-29T14:40:35.004Z,3.30
2023-04-29T14:42:35.435Z,3.70
2023-04-29T14:44:35.836Z,4.00
2023-04-29T14:46:36.162Z,3.70
2023-04-29T14:48:36.425Z,3.40
2023-04-29T14:50:36.755Z,3.70
2023-04-29T14:52:37.076Z,3.60
2023-04-29T14:54:37.448Z,3.80
2023-04-29T14:56:37.795Z,3.90
2023-04-29T14:58:38.090Z,3.50
2023-04-29T15:00:38.411Z,3.40
2023-04-29T15:02:38.764Z,3.90
2023-04-29T15:04:43.949Z,3.60
2023-04-29T15:06:44.267Z,3.80
2023-04-29T15:08:44.571Z,4.00
2023-04-29T15:10:44.864Z,3.80
2023-04-29T15:12:45.246Z,4.00
2023-04-29T15:14:45.493Z,3.60
2023-04-29T15:16:45.926Z,4.10
2023-04-29T15:18:46.217Z,3.70
2023-04-29T15:20:46.590Z,3.50
2023-04-29T15:22:46.887Z,3.30
2023-04-29T15:26:47.468Z,3.10
2023-04-29T15:28:47.748Z,2.90
2023-04-29T15:30:48.062Z,2.80
2023-04-29T15:32:48.443Z,3.00
2023-04-29T15:34:48.738Z,3.20
2023-04-29T15:36:49.029Z,3.00
2023-04-29T15:38:49.397Z,3.00
2023-04-29T15:40:49.717Z,3.00
2023-04-29T15:42:50.069Z,3.40
2023-04-29T15:44:50.321Z,3.20
2023-04-29T15:46:50.631Z,3.30
2023-04-29T15:48:50.962Z,3.40
2023-04-29T15:50:51.301Z,3.60
2023-04-29T15:52:51.592Z,4.20
2023-04-29T15:54:51.977Z,4.10
2023-04-29T15:56:52.225Z,4.00
2023-04-29T15:58:52.558Z,4.10
2023-04-29T16:00:53.153Z,4.30
2023-04-29T16:02:58.107Z,4.10
2023-04-29T16:04:58.387Z,4.10
2023-04-29T16:06:58.695Z,4.00
2023-04-29T16:08:59.071Z,4.20
2023-04-29T16:10:59.343Z,4.30
2023-04-29T16:12:59.663Z,3.90
2023-04-29T16:15:00.008Z,4.40
2023-04-29T16:17:00.309Z,3.70
2023-04-29T16:19:00.624Z,3.30
2023-04-29T16:21:00.948Z,3.70
2023-04-29T16:23:01.247Z,3.50
2023-04-29T16:25:01.606Z,3.60
2023-04-29T16:27:01.850Z,3.60
2023-04-29T16:29:02.182Z,4.00
2023-04-29T16:31:02.524Z,4.00
2023-04-29T16:33:02.861Z,4.20
2023-04-29T16:35:03.195Z,3.90
2023-04-29T16:37:03.512Z,3.60
2023-04-29T16:39:03.795Z,3.50
2023-04-29T16:41:04.128Z,3.70
2023-04-29T16:43:04.458Z,3.80
2023-04-29T16:45:04.830Z,4.10
2023-04-29T16:47:05.167Z,4.00
2023-04-29T16:49:05.469Z,4.30
2023-04-29T16:51:05.777Z,4.20
2023-04-29T16:53:06.082Z,4.30
2023-04-29T16:55:06.450Z,4.60
2023-04-29T16:57:06.777Z,4.50
2023-04-29T16:59:07.110Z,4.40
2023-04-29T17:01:07.516Z,5.40
2023-04-29T17:03:07.846Z,5.50
2023-04-29T17:05:08.099Z,4.80
2023-04-29T17:07:08.436Z,4.50
2023-04-29T17:09:08.813Z,5.00
2023-04-29T17:11:09.173Z,5.10
2023-04-29T17:13:09.428Z,5.60
2023-04-29T17:15:09.728Z,5.50
2023-04-29T17:17:10.043Z,8.70
2023-04-29T17:19:10.409Z,5.30
2023-04-29T17:21:10.664Z,5.80
2023-04-29T17:23:10.992Z,5.00
2023-04-29T17:25:11.275Z,4.50
2023-04-29T17:27:12.973Z,4.50
2023-04-29T17:29:13.349Z,4.50
2023-04-29T17:31:13.719Z,5.20
2023-04-29T17:33:14.111Z,4.60
2023-04-29T17:35:14.409Z,5.30
2023-04-29T17:37:14.760Z,5.10
2023-04-29T17:39:15.604Z,5.10
2023-04-29T17:41:16.333Z,5.10
2023-04-29T17:43:16.656Z,4.90
2023-04-29T17:45:16.981Z,5.50
2023-04-29T17:47:17.442Z,6.50
2023-04-29T17:49:17.803Z,6.10
2023-04-29T17:51:18.173Z,5.30
2023-04-29T17:53:18.452Z,5.20
2023-04-29T17:55:18.796Z,5.60
2023-04-29T17:57:19.096Z,5.80
2023-04-29T17:59:19.491Z,5.30
2023-04-29T18:01:20.055Z,5.80
2023-04-29T18:03:20.512Z,5.20
2023-04-29T18:05:20.898Z,4.60
2023-04-29T18:07:21.276Z,4.70
2023-04-29T18:09:21.753Z,4.60
2023-04-29T18:11:22.309Z,4.30
2023-04-29T18:13:24.127Z,4.70
2023-04-29T18:15:26.325Z,4.60
2023-04-29T18:17:26.762Z,4.20
2023-04-29T18:19:27.073Z,4.40
2023-04-29T18:21:27.409Z,4.00
2023-04-29T18:23:27.816Z,4.20
2023-04-29T18:25:28.181Z,4.70
2023-04-29T18:27:28.548Z,5.60
2023-04-29T18:30:11.502Z,5.50
2023-04-29T18:32:11.875Z,5.80
2023-04-29T18:34:12.254Z,5.10
2023-04-29T18:36:12.536Z,5.10
2023-04-29T18:38:12.890Z,4.60
2023-04-29T18:40:13.149Z,3.60
2023-04-29T18:42:13.439Z,3.40
2023-04-29T18:44:13.812Z,3.90
2023-04-29T18:46:14.107Z,3.60
2023-04-29T18:48:14.588Z,3.40
2023-04-29T18:50:14.882Z,3.30
2023-04-29T18:52:15.285Z,3.30
2023-04-29T18:54:15.691Z,2.90
2023-04-29T18:56:16.021Z,2.90
2023-04-29T18:58:16.335Z,2.80
2023-04-29T19:00:16.655Z,2.90
2023-04-29T19:02:17.031Z,2.40
2023-04-29T19:04:17.312Z,2.00
2023-04-29T19:06:17.692Z,2.50
2023-04-29T19:08:18.022Z,3.20
2023-04-29T19:10:18.344Z,2.70
2023-04-29T19:12:18.651Z,2.50
2023-04-29T19:14:18.919Z,2.40
2023-04-29T19:16:19.392Z,2.40
2023-04-29T19:18:19.778Z,2.50
2023-04-29T19:20:20.094Z,2.20
2023-04-29T19:22:20.420Z,2.30
2023-04-29T19:24:20.743Z,2.30
2023-04-29T19:26:21.105Z,2.40
2023-04-29T19:28:21.473Z,2.60
2023-04-29T19:30:21.765Z,2.70
2023-04-29T19:32:22.338Z,2.50
2023-04-29T19:34:22.697Z,2.50
2023-04-29T19:36:22.959Z,2.40
2023-04-29T19:38:23.224Z,2.50
2023-04-29T19:40:23.624Z,2.90
2023-04-29T19:42:23.860Z,3.00
2023-04-29T19:44:24.246Z,2.90
2023-04-29T19:46:24.572Z,3.80
2023-04-29T19:48:24.839Z,3.50
2023-04-29T19:50:25.201Z,3.90
2023-04-29T19:52:25.480Z,3.60
2023-04-29T19:54:25.746Z,3.60
2023-04-29T19:56:26.057Z,2.70
2023-04-29T19:58:26.401Z,3.00
2023-04-29T20:00:26.699Z,3.10
2023-04-29T20:02:27.053Z,3.10
2023-04-29T20:04:27.337Z,3.70
2023-04-29T20:06:27.718Z,3.40
2023-04-29T20:08:27.993Z,3.70
2023-04-29T20:10:29.953Z,3.70
2023-04-29T20:12:30.500Z,3.90
2023-04-29T20:14:30.840Z,4.40
2023-04-29T20:16:31.232Z,4.00
2023-04-29T20:18:31.553Z,4.50
2023-04-29T20:20:31.926Z,4.70
2023-04-29T20:22:32.208Z,4.70
2023-04-29T20:24:32.521Z,4.70
2023-04-29T20:26:33.086Z,4.80
2023-04-29T20:28:33.402Z,5.20
2023-04-29T20:30:33.730Z,5.00
2023-04-29T20:32:34.032Z,5.40
2023-04-29T20:34:34.360Z,5.60
2023-04-29T20:36:34.661Z,5.50
2023-04-29T20:38:34.984Z,5.50
2023-04-29T20:40:35.245Z,5.50
2023-04-29T20:42:35.598Z,5.80
2023-04-29T20:44:35.882Z,5.70
2023-04-29T20:46:36.255Z,6.40
2023-04-29T20:48:36.534Z,5.80
2023-04-29T20:50:36.829Z,5.60
2023-04-29T20:52:37.100Z,6.10
2023-04-29T20:54:40.285Z,5.90
2023-04-29T20:56:40.745Z,6.60
2023-04-29T20:58:41.491Z,6.30
2023-04-29T21:01:24.321Z,6.90
2023-04-29T21:03:24.627Z,7.60
2023-04-29T21:05:24.913Z,7.60
2023-04-29T21:07:25.217Z,7.20
2023-04-29T21:09:25.570Z,7.20
2023-04-29T21:11:26.423Z,7.30
2023-04-29T21:13:26.672Z,7.60
2023-04-29T21:15:27.070Z,7.60
2023-04-29T21:17:27.383Z,7.30
2023-04-29T21:19:27.761Z,7.90
2023-04-29T21:21:28.098Z,7.40
2023-04-29T21:23:28.328Z,8.00
2023-04-29T21:25:28.631Z,7.50
2023-04-29T21:27:28.966Z,7.30
2023-04-29T21:29:29.278Z,7.50
2023-04-29T21:31:29.666Z,7.80
2023-04-29T21:33:29.998Z,7.30
2023-04-29T21:35:30.305Z,7.70
2023-04-29T21:37:30.629Z,7.90
2023-04-29T21:39:31.006Z,7.70
2023-04-29T21:41:31.653Z,7.40
2023-04-29T21:43:32.435Z,7.30
2023-04-29T21:45:32.831Z,7.40
2023-04-29T21:47:33.207Z,7.60
2023-04-29T21:49:33.527Z,7.60
2023-04-29T21:51:33.819Z,7.30
2023-04-29T21:53:34.147Z,7.50
2023-04-29T21:55:34.445Z,7.40
2023-04-29T21:57:44.476Z,7.80
2023-04-29T21:59:39.956Z,8.00
2023-04-29T22:01:40.276Z,7.60
2023-04-29T22:03:40.577Z,7.50
2023-04-29T22:05:40.925Z,7.40
2023-04-29T22:07:41.213Z,7.40
2023-04-29T22:09:41.544Z,7.60
2023-04-29T22:11:41.846Z,7.70
2023-04-29T22:13:42.166Z,8.10
2023-04-29T22:15:42.478Z,8.20
2023-04-29T22:17:42.804Z,8.10
2023-04-29T22:19:43.085Z,8.20
2023-04-29T22:21:43.398Z,8.50
2023-04-29T22:23:43.699Z,8.20
2023-04-29T22:25:44.000Z,7.60
2023-04-29T22:27:44.328Z,8.10
2023-04-29T22:29:44.644Z,8.20
2023-04-29T22:31:44.965Z,8.20
2023-04-29T22:33:45.213Z,8.40
2023-04-29T22:35:45.581Z,8.40
2023-04-29T22:37:50.752Z,8.40
2023-04-29T22:39:51.086Z,8.40
2023-04-29T22:41:51.416Z,8.30
2023-04-29T22:43:51.682Z,7.90
2023-04-29T22:45:52.047Z,8.00
2023-04-29T22:47:52.376Z,8.20
2023-04-29T22:49:52.816Z,8.20
2023-04-29T22:51:53.207Z,8.10
2023-04-29T22:53:53.549Z,8.10
2023-04-29T22:55:53.960Z,7.70
2023-04-29T22:57:54.264Z,8.10
2023-04-29T22:59:54.746Z,8.10
2023-04-29T23:01:55.378Z,7.90
2023-04-29T23:03:55.779Z,8.20
2023-04-29T23:05:56.112Z,8.20
2023-04-29T23:07:56.363Z,8.60
2023-04-29T23:09:56.816Z,8.20
2023-04-29T23:11:57.197Z,8.20
2023-04-29T23:13:57.505Z,8.10
2023-04-29T23:15:57.830Z,8.70
2023-04-29T23:17:58.212Z,8.70
2023-04-29T23:19:58.484Z,8.10
2023-04-29T23:21:58.796Z,8.20
2023-04-29T23:23:59.143Z,8.50
2023-04-29T23:25:59.435Z,8.10
2023-04-29T23:27:59.886Z,7.90
2023-04-29T23:30:00.200Z,8.30
2023-04-29T23:32:00.535Z,8.30
2023-04-29T23:34:00.885Z,8.40
2023-04-29T23:36:01.190Z,9.00
2023-04-29T23:38:01.477Z,8.80
2023-04-29T23:40:01.772Z,9.30
2023-04-29T23:42:02.071Z,9.20
2023-04-29T23:44:02.397Z,8.80
2023-04-29T23:46:02.856Z,8.40
2023-04-29T23:48:03.274Z,8.60
2023-04-29T23:50:03.614Z,8.70
2023-04-29T23:52:03.923Z,9.50
2023-04-29T23:54:04.202Z,8.90
2023-04-29T23:56:04.473Z,9.20
2023-04-29T23:58:04.793Z,8.80
